sensor_id;sensor_type;location;lat;lon;timestamp;temperature;humidity
32660;DHT22;19064;47.912;12.308;2023-11-19T00:01:06;4.70;99.90
32660;DHT22;19064;47.912;12.308;2023-11-19T00:03:34;4.70;99.90
32660;DHT22;19064;47.912;12.308;2023-11-19T00:06:04;4.70;99.90
32660;DHT22;19064;47.912;12.308;2023-11-19T00:08:32;4.70;99.90
32660;DHT22;19064;47.912;12.308;2023-11-19T00:11:00;4.70;99.90
32660;DHT22;19064;47.912;12.308;2023-11-19T00:13:28;4.70;99.90
32660;DHT22;19064;47.912;12.308;2023-11-19T00:15:55;4.70;99.90
32660;DHT22;19064;47.912;12.308;2023-11-19T00:18:24;4.70;99.90
32660;DHT22;19064;47.912;12.308;2023-11-19T00:20:52;4.70;99.90
32660;DHT22;19064;47.912;12.308;2023-11-19T00:23:21;4.70;99.90
32660;DHT22;19064;47.912;12.308;2023-11-19T00:25:49;4.70;99.90
32660;DHT22;19064;47.912;12.308;2023-11-19T00:28:17;4.80;99.90
32660;DHT22;19064;47.912;12.308;2023-11-19T00:30:45;4.80;99.90
32660;DHT22;19064;47.912;12.308;2023-11-19T00:33:13;4.80;99.90
32660;DHT22;19064;47.912;12.308;2023-11-19T00:35:41;4.80;99.90
32660;DHT22;19064;47.912;12.308;2023-11-19T00:38:10;4.80;99.90
32660;DHT22;19064;47.912;12.308;2023-11-19T00:40:39;4.80;99.90
32660;DHT22;19064;47.912;12.308;2023-11-19T00:43:08;4.80;99.90
32660;DHT22;19064;47.912;12.308;2023-11-19T00:45:36;4.80;99.90
32660;DHT22;19064;47.912;12.308;2023-11-19T00:48:03;4.90;99.90
32660;DHT22;19064;47.912;12.308;2023-11-19T00:50:30;4.70;99.90
32660;DHT22;19064;47.912;12.308;2023-11-19T00:52:59;4.80;99.90
32660;DHT22;19064;47.912;12.308;2023-11-19T00:55:29;4.90;99.90
32660;DHT22;19064;47.912;12.308;2023-11-19T00:57:57;4.70;99.90
32660;DHT22;19064;47.912;12.308;2023-11-19T01:00:24;4.80;99.90
32660;DHT22;19064;47.912;12.308;2023-11-19T01:02:55;4.70;99.90
32660;DHT22;19064;47.912;12.308;2023-11-19T01:05:35;4.80;99.90
32660;DHT22;19064;47.912;12.308;2023-11-19T01:08:02;4.90;99.90
32660;DHT22;19064;47.912;12.308;2023-11-19T01:10:30;4.90;99.90
32660;DHT22;19064;47.912;12.308;2023-11-19T01:12:59;4.90;99.90
32660;DHT22;19064;47.912;12.308;2023-11-19T01:15:26;4.80;99.90
32660;DHT22;19064;47.912;12.308;2023-11-19T01:17:52;4.80;99.90
32660;DHT22;19064;47.912;12.308;2023-11-19T01:20:19;4.90;99.90
32660;DHT22;19064;47.912;12.308;2023-11-19T01:22:46;4.80;99.90
32660;DHT22;19064;47.912;12.308;2023-11-19T01:25:14;4.70;99.90
32660;DHT22;19064;47.912;12.308;2023-11-19T01:27:40;4.70;99.90
32660;DHT22;19064;47.912;12.308;2023-11-19T01:30:15;4.70;99.90
32660;DHT22;19064;47.912;12.308;2023-11-19T01:32:43;4.60;99.90
32660;DHT22;19064;47.912;12.308;2023-11-19T01:35:12;4.60;99.90
32660;DHT22;19064;47.912;12.308;2023-11-19T01:37:39;4.70;99.90
32660;DHT22;19064;47.912;12.308;2023-11-19T01:40:09;4.70;99.90
32660;DHT22;19064;47.912;12.308;2023-11-19T01:42:38;4.70;99.90
32660;DHT22;19064;47.912;12.308;2023-11-19T01:45:07;4.70;99.90
32660;DHT22;19064;47.912;12.308;2023-11-19T01:47:38;4.70;99.90
32660;DHT22;19064;47.912;12.308;2023-11-19T01:50:08;4.80;99.90
32660;DHT22;19064;47.912;12.308;2023-11-19T01:52:37;4.80;99.90
32660;DHT22;19064;47.912;12.308;2023-11-19T01:55:06;4.80;99.90
32660;DHT22;19064;47.912;12.308;2023-11-19T01:57:37;4.80;99.90
32660;DHT22;19064;47.912;12.308;2023-11-19T02:00:09;4.90;99.90
32660;DHT22;19064;47.912;12.308;2023-11-19T02:02:44;4.90;99.90
32660;DHT22;19064;47.912;12.308;2023-11-19T02:05:14;4.90;99.90
32660;DHT22;19064;47.912;12.308;2023-11-19T02:07:42;4.90;99.90
32660;DHT22;19064;47.912;12.308;2023-11-19T02:10:10;4.90;99.90
32660;DHT22;19064;47.912;12.308;2023-11-19T02:12:46;5.00;99.90
32660;DHT22;19064;47.912;12.308;2023-11-19T02:15:14;5.00;99.90
32660;DHT22;19064;47.912;12.308;2023-11-19T02:17:52;5.00;99.90
32660;DHT22;19064;47.912;12.308;2023-11-19T02:20:21;5.10;99.90
32660;DHT22;19064;47.912;12.308;2023-11-19T02:22:49;5.10;99.90
32660;DHT22;19064;47.912;12.308;2023-11-19T02:25:22;5.10;99.90
32660;DHT22;19064;47.912;12.308;2023-11-19T02:27:57;5.10;99.90
32660;DHT22;19064;47.912;12.308;2023-11-19T02:30:26;5.20;99.90
32660;DHT22;19064;47.912;12.308;2023-11-19T02:32:55;5.20;99.90
32660;DHT22;19064;47.912;12.308;2023-11-19T02:35:24;5.20;99.90
32660;DHT22;19064;47.912;12.308;2023-11-19T02:37:52;5.20;99.90
32660;DHT22;19064;47.912;12.308;2023-11-19T02:40:20;5.20;99.90
32660;DHT22;19064;47.912;12.308;2023-11-19T02:42:51;5.20;99.90
32660;DHT22;19064;47.912;12.308;2023-11-19T02:45:21;5.20;99.90
32660;DHT22;19064;47.912;12.308;2023-11-19T02:47:51;5.20;99.90
32660;DHT22;19064;47.912;12.308;2023-11-19T02:50:20;5.20;99.90
32660;DHT22;19064;47.912;12.308;2023-11-19T02:52:59;5.10;99.90
32660;DHT22;19064;47.912;12.308;2023-11-19T02:55:27;5.00;99.90
32660;DHT22;19064;47.912;12.308;2023-11-19T02:57:57;5.10;99.90
32660;DHT22;19064;47.912;12.308;2023-11-19T03:00:28;5.10;99.90
32660;DHT22;19064;47.912;12.308;2023-11-19T03:03:00;5.10;99.90
32660;DHT22;19064;47.912;12.308;2023-11-19T03:05:36;5.00;99.90
32660;DHT22;19064;47.912;12.308;2023-11-19T03:08:05;5.10;99.90
32660;DHT22;19064;47.912;12.308;2023-11-19T03:10:33;5.10;99.90
32660;DHT22;19064;47.912;12.308;2023-11-19T03:13:01;5.20;99.90
32660;DHT22;19064;47.912;12.308;2023-11-19T03:15:39;5.30;99.90
32660;DHT22;19064;47.912;12.308;2023-11-19T03:18:07;5.30;99.90
32660;DHT22;19064;47.912;12.308;2023-11-19T03:20:35;5.30;99.90
32660;DHT22;19064;47.912;12.308;2023-11-19T03:23:03;5.30;99.90
32660;DHT22;19064;47.912;12.308;2023-11-19T03:25:31;5.30;99.90
32660;DHT22;19064;47.912;12.308;2023-11-19T03:28:00;5.30;99.90
32660;DHT22;19064;47.912;12.308;2023-11-19T03:30:31;5.30;99.90
32660;DHT22;19064;47.912;12.308;2023-11-19T03:33:04;5.30;99.90
32660;DHT22;19064;47.912;12.308;2023-11-19T03:35:32;5.40;99.90
32660;DHT22;19064;47.912;12.308;2023-11-19T03:38:00;5.40;99.90
32660;DHT22;19064;47.912;12.308;2023-11-19T03:40:29;5.40;99.90
32660;DHT22;19064;47.912;12.308;2023-11-19T03:42:57;5.50;99.90
32660;DHT22;19064;47.912;12.308;2023-11-19T03:45:25;5.50;99.90
32660;DHT22;19064;47.912;12.308;2023-11-19T03:47:53;5.60;99.90
32660;DHT22;19064;47.912;12.308;2023-11-19T03:50:22;5.60;99.90
32660;DHT22;19064;47.912;12.308;2023-11-19T03:52:50;5.60;99.90
32660;DHT22;19064;47.912;12.308;2023-11-19T03:55:18;5.60;99.90
32660;DHT22;19064;47.912;12.308;2023-11-19T03:57:47;5.70;99.90
32660;DHT22;19064;47.912;12.308;2023-11-19T04:00:15;5.70;99.90
32660;DHT22;19064;47.912;12.308;2023-11-19T04:02:44;5.70;99.90
32660;DHT22;19064;47.912;12.308;2023-11-19T04:05:13;5.80;99.90
32660;DHT22;19064;47.912;12.308;2023-11-19T04:07:47;6.10;99.90
32660;DHT22;19064;47.912;12.308;2023-11-19T04:10:17;6.20;99.90
32660;DHT22;19064;47.912;12.308;2023-11-19T04:12:45;6.10;99.90
32660;DHT22;19064;47.912;12.308;2023-11-19T04:15:14;6.10;99.90
32660;DHT22;19064;47.912;12.308;2023-11-19T04:17:42;6.10;99.90
32660;DHT22;19064;47.912;12.308;2023-11-19T04:20:11;6.10;99.90
32660;DHT22;19064;47.912;12.308;2023-11-19T04:22:40;6.10;99.90
32660;DHT22;19064;47.912;12.308;2023-11-19T04:25:13;6.20;99.90
32660;DHT22;19064;47.912;12.308;2023-11-19T04:27:43;6.10;99.90
32660;DHT22;19064;47.912;12.308;2023-11-19T04:30:11;6.20;99.90
32660;DHT22;19064;47.912;12.308;2023-11-19T04:32:41;6.30;99.90
32660;DHT22;19064;47.912;12.308;2023-11-19T04:35:09;6.40;99.90
32660;DHT22;19064;47.912;12.308;2023-11-19T04:37:37;6.30;99.90
32660;DHT22;19064;47.912;12.308;2023-11-19T04:40:06;6.40;99.90
32660;DHT22;19064;47.912;12.308;2023-11-19T04:42:36;6.40;99.90
32660;DHT22;19064;47.912;12.308;2023-11-19T04:45:04;6.40;99.90
32660;DHT22;19064;47.912;12.308;2023-11-19T04:47:33;6.40;99.90
32660;DHT22;19064;47.912;12.308;2023-11-19T04:50:01;6.50;99.90
32660;DHT22;19064;47.912;12.308;2023-11-19T04:52:43;6.50;99.90
32660;DHT22;19064;47.912;12.308;2023-11-19T04:55:12;6.50;99.90
32660;DHT22;19064;47.912;12.308;2023-11-19T04:57:42;6.50;99.90
32660;DHT22;19064;47.912;12.308;2023-11-19T05:00:11;6.60;99.90
32660;DHT22;19064;47.912;12.308;2023-11-19T05:02:40;6.60;99.90
32660;DHT22;19064;47.912;12.308;2023-11-19T05:05:08;6.60;99.90
32660;DHT22;19064;47.912;12.308;2023-11-19T05:07:36;6.60;99.90
32660;DHT22;19064;47.912;12.308;2023-11-19T05:10:05;6.70;99.90
32660;DHT22;19064;47.912;12.308;2023-11-19T05:12:33;6.70;99.90
32660;DHT22;19064;47.912;12.308;2023-11-19T05:15:04;6.70;99.90
32660;DHT22;19064;47.912;12.308;2023-11-19T05:17:32;6.70;99.90
32660;DHT22;19064;47.912;12.308;2023-11-19T05:20:00;6.70;99.90
32660;DHT22;19064;47.912;12.308;2023-11-19T05:22:30;6.70;99.90
32660;DHT22;19064;47.912;12.308;2023-11-19T05:24:59;6.60;99.90
32660;DHT22;19064;47.912;12.308;2023-11-19T05:27:27;6.60;99.90
32660;DHT22;19064;47.912;12.308;2023-11-19T05:29:55;6.50;99.90
32660;DHT22;19064;47.912;12.308;2023-11-19T05:32:24;6.50;99.90
32660;DHT22;19064;47.912;12.308;2023-11-19T05:34:52;6.50;99.90
32660;DHT22;19064;47.912;12.308;2023-11-19T05:37:23;6.50;99.90
32660;DHT22;19064;47.912;12.308;2023-11-19T05:39:51;6.40;99.90
32660;DHT22;19064;47.912;12.308;2023-11-19T05:42:19;6.40;99.90
32660;DHT22;19064;47.912;12.308;2023-11-19T05:44:47;6.40;99.90
32660;DHT22;19064;47.912;12.308;2023-11-19T05:47:15;6.40;99.90
32660;DHT22;19064;47.912;12.308;2023-11-19T05:49:45;6.40;99.90
32660;DHT22;19064;47.912;12.308;2023-11-19T05:52:13;6.40;99.90
32660;DHT22;19064;47.912;12.308;2023-11-19T05:54:41;6.40;99.90
32660;DHT22;19064;47.912;12.308;2023-11-19T05:57:09;6.40;99.90
32660;DHT22;19064;47.912;12.308;2023-11-19T05:59:38;6.40;99.90
32660;DHT22;19064;47.912;12.308;2023-11-19T06:02:05;6.50;99.90
32660;DHT22;19064;47.912;12.308;2023-11-19T06:04:35;6.50;99.90
32660;DHT22;19064;47.912;12.308;2023-11-19T06:07:05;6.60;99.90
32660;DHT22;19064;47.912;12.308;2023-11-19T06:09:33;6.60;99.90
32660;DHT22;19064;47.912;12.308;2023-11-19T06:12:01;6.80;99.90
32660;DHT22;19064;47.912;12.308;2023-11-19T06:14:33;6.80;99.90
32660;DHT22;19064;47.912;12.308;2023-11-19T06:17:03;6.90;99.90
32660;DHT22;19064;47.912;12.308;2023-11-19T06:19:31;6.90;99.90
32660;DHT22;19064;47.912;12.308;2023-11-19T06:22:00;7.00;99.90
32660;DHT22;19064;47.912;12.308;2023-11-19T06:24:29;7.00;99.90
32660;DHT22;19064;47.912;12.308;2023-11-19T06:26:57;7.20;99.90
32660;DHT22;19064;47.912;12.308;2023-11-19T06:29:26;7.20;99.90
32660;DHT22;19064;47.912;12.308;2023-11-19T06:31:54;7.30;99.90
32660;DHT22;19064;47.912;12.308;2023-11-19T06:34:22;7.30;99.90
32660;DHT22;19064;47.912;12.308;2023-11-19T06:36:50;7.30;99.90
32660;DHT22;19064;47.912;12.308;2023-11-19T06:39:18;7.20;99.90
32660;DHT22;19064;47.912;12.308;2023-11-19T06:41:48;7.20;99.90
32660;DHT22;19064;47.912;12.308;2023-11-19T06:44:15;7.30;99.90
32660;DHT22;19064;47.912;12.308;2023-11-19T06:46:44;7.30;99.90
32660;DHT22;19064;47.912;12.308;2023-11-19T06:49:12;7.30;99.90
32660;DHT22;19064;47.912;12.308;2023-11-19T06:51:43;7.30;99.90
32660;DHT22;19064;47.912;12.308;2023-11-19T06:54:13;7.30;99.90
32660;DHT22;19064;47.912;12.308;2023-11-19T06:56:42;7.30;99.90
32660;DHT22;19064;47.912;12.308;2023-11-19T06:59:11;7.30;99.90
32660;DHT22;19064;47.912;12.308;2023-11-19T07:01:39;7.30;99.90
32660;DHT22;19064;47.912;12.308;2023-11-19T07:04:10;7.40;99.90
32660;DHT22;19064;47.912;12.308;2023-11-19T07:06:38;7.40;99.90
32660;DHT22;19064;47.912;12.308;2023-11-19T07:09:07;7.50;99.90
32660;DHT22;19064;47.912;12.308;2023-11-19T07:11:37;7.40;99.90
32660;DHT22;19064;47.912;12.308;2023-11-19T07:14:04;7.40;99.90
32660;DHT22;19064;47.912;12.308;2023-11-19T07:16:34;7.50;99.90
32660;DHT22;19064;47.912;12.308;2023-11-19T07:19:04;7.50;99.90
32660;DHT22;19064;47.912;12.308;2023-11-19T07:21:33;7.50;99.90
32660;DHT22;19064;47.912;12.308;2023-11-19T07:24:02;7.50;99.90
32660;DHT22;19064;47.912;12.308;2023-11-19T07:26:32;7.50;99.90
32660;DHT22;19064;47.912;12.308;2023-11-19T07:29:00;7.60;99.90
32660;DHT22;19064;47.912;12.308;2023-11-19T07:31:28;7.70;99.90
32660;DHT22;19064;47.912;12.308;2023-11-19T07:33:58;7.70;99.90
32660;DHT22;19064;47.912;12.308;2023-11-19T07:36:26;7.70;99.90
32660;DHT22;19064;47.912;12.308;2023-11-19T07:38:57;7.80;99.90
32660;DHT22;19064;47.912;12.308;2023-11-19T07:41:25;7.80;99.90
32660;DHT22;19064;47.912;12.308;2023-11-19T07:43:54;7.90;99.90
32660;DHT22;19064;47.912;12.308;2023-11-19T07:46:22;8.00;99.90
32660;DHT22;19064;47.912;12.308;2023-11-19T07:48:52;8.00;99.90
32660;DHT22;19064;47.912;12.308;2023-11-19T07:51:20;8.10;99.90
32660;DHT22;19064;47.912;12.308;2023-11-19T07:53:48;8.20;99.90
32660;DHT22;19064;47.912;12.308;2023-11-19T07:56:16;8.20;99.90
32660;DHT22;19064;47.912;12.308;2023-11-19T07:58:44;8.30;99.90
32660;DHT22;19064;47.912;12.308;2023-11-19T08:01:12;8.40;99.90
32660;DHT22;19064;47.912;12.308;2023-11-19T08:03:40;8.40;99.90
32660;DHT22;19064;47.912;12.308;2023-11-19T08:06:08;8.50;99.90
32660;DHT22;19064;47.912;12.308;2023-11-19T08:08:37;8.50;99.90
32660;DHT22;19064;47.912;12.308;2023-11-19T08:11:06;8.60;99.90
32660;DHT22;19064;47.912;12.308;2023-11-19T08:13:33;8.60;99.90
32660;DHT22;19064;47.912;12.308;2023-11-19T08:16:01;8.60;99.90
32660;DHT22;19064;47.912;12.308;2023-11-19T08:18:29;8.60;99.90
32660;DHT22;19064;47.912;12.308;2023-11-19T08:20:57;8.70;99.90
32660;DHT22;19064;47.912;12.308;2023-11-19T08:23:29;8.70;99.90
32660;DHT22;19064;47.912;12.308;2023-11-19T08:25:58;8.80;99.90
32660;DHT22;19064;47.912;12.308;2023-11-19T08:28:26;8.70;99.90
32660;DHT22;19064;47.912;12.308;2023-11-19T08:30:54;8.80;99.90
32660;DHT22;19064;47.912;12.308;2023-11-19T08:33:22;8.80;99.90
32660;DHT22;19064;47.912;12.308;2023-11-19T08:35:59;8.80;99.90
32660;DHT22;19064;47.912;12.308;2023-11-19T08:38:35;8.80;99.90
32660;DHT22;19064;47.912;12.308;2023-11-19T08:41:04;8.80;99.90
32660;DHT22;19064;47.912;12.308;2023-11-19T08:43:33;8.90;99.90
32660;DHT22;19064;47.912;12.308;2023-11-19T08:46:03;8.90;99.90
32660;DHT22;19064;47.912;12.308;2023-11-19T08:48:32;8.90;99.90
32660;DHT22;19064;47.912;12.308;2023-11-19T08:51:00;8.90;99.90
32660;DHT22;19064;47.912;12.308;2023-11-19T08:53:28;8.90;99.90
32660;DHT22;19064;47.912;12.308;2023-11-19T08:55:56;9.00;99.90
32660;DHT22;19064;47.912;12.308;2023-11-19T08:58:27;9.00;99.90
32660;DHT22;19064;47.912;12.308;2023-11-19T09:00:55;9.10;99.90
32660;DHT22;19064;47.912;12.308;2023-11-19T09:03:25;9.10;99.90
32660;DHT22;19064;47.912;12.308;2023-11-19T09:05:54;9.10;99.90
32660;DHT22;19064;47.912;12.308;2023-11-19T09:08:22;9.20;99.90
32660;DHT22;19064;47.912;12.308;2023-11-19T09:10:50;9.20;99.90
32660;DHT22;19064;47.912;12.308;2023-11-19T09:13:19;9.30;99.90
32660;DHT22;19064;47.912;12.308;2023-11-19T09:15:48;9.30;99.90
32660;DHT22;19064;47.912;12.308;2023-11-19T09:18:16;9.40;99.90
32660;DHT22;19064;47.912;12.308;2023-11-19T09:20:45;9.40;99.90
32660;DHT22;19064;47.912;12.308;2023-11-19T09:23:15;9.50;99.90
32660;DHT22;19064;47.912;12.308;2023-11-19T09:25:43;9.60;99.90
32660;DHT22;19064;47.912;12.308;2023-11-19T09:28:12;9.60;99.90
32660;DHT22;19064;47.912;12.308;2023-11-19T09:30:41;9.70;99.90
32660;DHT22;19064;47.912;12.308;2023-11-19T09:33:10;9.70;99.90
32660;DHT22;19064;47.912;12.308;2023-11-19T09:35:38;9.80;99.90
32660;DHT22;19064;47.912;12.308;2023-11-19T09:38:06;9.90;99.90
32660;DHT22;19064;47.912;12.308;2023-11-19T09:40:34;9.90;99.90
32660;DHT22;19064;47.912;12.308;2023-11-19T09:43:02;10.00;99.90
32660;DHT22;19064;47.912;12.308;2023-11-19T09:45:32;10.10;99.90
32660;DHT22;19064;47.912;12.308;2023-11-19T09:48:07;10.30;99.90
32660;DHT22;19064;47.912;12.308;2023-11-19T09:50:38;10.40;99.90
32660;DHT22;19064;47.912;12.308;2023-11-19T09:53:06;10.40;99.90
32660;DHT22;19064;47.912;12.308;2023-11-19T09:55:34;10.50;99.90
32660;DHT22;19064;47.912;12.308;2023-11-19T09:58:03;10.50;99.90
32660;DHT22;19064;47.912;12.308;2023-11-19T10:00:35;10.60;99.90
32660;DHT22;19064;47.912;12.308;2023-11-19T10:03:04;10.60;99.90
32660;DHT22;19064;47.912;12.308;2023-11-19T10:05:33;10.60;99.90
32660;DHT22;19064;47.912;12.308;2023-11-19T10:08:03;10.70;99.90
32660;DHT22;19064;47.912;12.308;2023-11-19T10:10:32;10.70;99.90
32660;DHT22;19064;47.912;12.308;2023-11-19T10:13:00;10.70;99.90
32660;DHT22;19064;47.912;12.308;2023-11-19T10:15:35;10.70;99.90
32660;DHT22;19064;47.912;12.308;2023-11-19T10:18:04;10.70;99.90
32660;DHT22;19064;47.912;12.308;2023-11-19T10:20:35;10.60;99.90
32660;DHT22;19064;47.912;12.308;2023-11-19T10:23:05;10.60;99.90
32660;DHT22;19064;47.912;12.308;2023-11-19T10:25:33;10.60;99.90
32660;DHT22;19064;47.912;12.308;2023-11-19T10:28:00;10.60;99.90
32660;DHT22;19064;47.912;12.308;2023-11-19T10:30:29;10.60;99.90
32660;DHT22;19064;47.912;12.308;2023-11-19T10:33:10;10.70;99.90
32660;DHT22;19064;47.912;12.308;2023-11-19T10:35:54;10.70;99.90
32660;DHT22;19064;47.912;12.308;2023-11-19T10:38:25;10.80;99.90
32660;DHT22;19064;47.912;12.308;2023-11-19T10:40:54;10.90;99.90
32660;DHT22;19064;47.912;12.308;2023-11-19T10:43:23;11.00;99.90
32660;DHT22;19064;47.912;12.308;2023-11-19T10:45:54;11.00;99.90
32660;DHT22;19064;47.912;12.308;2023-11-19T10:48:36;11.10;99.90
32660;DHT22;19064;47.912;12.308;2023-11-19T10:51:06;11.10;99.90
32660;DHT22;19064;47.912;12.308;2023-11-19T10:53:56;11.20;99.90
32660;DHT22;19064;47.912;12.308;2023-11-19T10:56:30;11.20;99.90
32660;DHT22;19064;47.912;12.308;2023-11-19T10:58:59;11.30;99.90
32660;DHT22;19064;47.912;12.308;2023-11-19T11:01:43;11.30;99.90
32660;DHT22;19064;47.912;12.308;2023-11-19T11:04:19;11.30;99.90
32660;DHT22;19064;47.912;12.308;2023-11-19T11:06:51;11.30;99.90
32660;DHT22;19064;47.912;12.308;2023-11-19T11:09:28;11.30;99.90
32660;DHT22;19064;47.912;12.308;2023-11-19T11:12:01;11.30;99.90
32660;DHT22;19064;47.912;12.308;2023-11-19T11:14:30;11.30;99.90
32660;DHT22;19064;47.912;12.308;2023-11-19T11:17:03;11.40;99.90
32660;DHT22;19064;47.912;12.308;2023-11-19T11:19:35;11.50;99.90
32660;DHT22;19064;47.912;12.308;2023-11-19T11:22:07;11.50;99.90
32660;DHT22;19064;47.912;12.308;2023-11-19T11:24:54;11.50;99.90
32660;DHT22;19064;47.912;12.308;2023-11-19T11:27:58;11.60;99.90
32660;DHT22;19064;47.912;12.308;2023-11-19T11:30:39;11.70;99.90
32660;DHT22;19064;47.912;12.308;2023-11-19T11:33:26;11.70;99.90
32660;DHT22;19064;47.912;12.308;2023-11-19T11:36:07;11.80;99.90
32660;DHT22;19064;47.912;12.308;2023-11-19T11:38:40;11.90;99.90
32660;DHT22;19064;47.912;12.308;2023-11-19T11:41:20;12.00;99.90
32660;DHT22;19064;47.912;12.308;2023-11-19T11:43:50;12.00;99.90
32660;DHT22;19064;47.912;12.308;2023-11-19T11:49:30;12.10;99.90
32660;DHT22;19064;47.912;12.308;2023-11-19T11:52:02;12.10;99.90
32660;DHT22;19064;47.912;12.308;2023-11-19T11:54:34;12.10;99.90
32660;DHT22;19064;47.912;12.308;2023-11-19T11:57:07;12.20;99.90
32660;DHT22;19064;47.912;12.308;2023-11-19T11:59:45;12.20;99.90
32660;DHT22;19064;47.912;12.308;2023-11-19T12:02:14;12.40;99.90
32660;DHT22;19064;47.912;12.308;2023-11-19T12:04:43;12.40;99.90
32660;DHT22;19064;47.912;12.308;2023-11-19T12:07:12;12.50;99.90
32660;DHT22;19064;47.912;12.308;2023-11-19T12:09:41;12.50;99.90
32660;DHT22;19064;47.912;12.308;2023-11-19T12:12:26;12.50;99.90
32660;DHT22;19064;47.912;12.308;2023-11-19T12:15:00;12.60;99.90
32660;DHT22;19064;47.912;12.308;2023-11-19T12:17:41;12.60;99.90
32660;DHT22;19064;47.912;12.308;2023-11-19T12:20:10;12.60;99.90
32660;DHT22;19064;47.912;12.308;2023-11-19T12:22:37;12.50;99.90
32660;DHT22;19064;47.912;12.308;2023-11-19T12:25:08;12.60;99.90
32660;DHT22;19064;47.912;12.308;2023-11-19T12:27:39;12.50;99.90
32660;DHT22;19064;47.912;12.308;2023-11-19T12:30:08;12.50;99.90
32660;DHT22;19064;47.912;12.308;2023-11-19T12:32:40;12.50;99.90
32660;DHT22;19064;47.912;12.308;2023-11-19T12:35:09;12.50;99.90
32660;DHT22;19064;47.912;12.308;2023-11-19T12:37:44;12.50;99.90
32660;DHT22;19064;47.912;12.308;2023-11-19T12:40:16;12.50;99.90
32660;DHT22;19064;47.912;12.308;2023-11-19T12:42:49;12.50;99.90
32660;DHT22;19064;47.912;12.308;2023-11-19T12:45:18;12.40;99.90
32660;DHT22;19064;47.912;12.308;2023-11-19T12:47:47;12.40;99.90
32660;DHT22;19064;47.912;12.308;2023-11-19T12:50:17;12.40;99.90
32660;DHT22;19064;47.912;12.308;2023-11-19T12:52:55;12.40;99.90
32660;DHT22;19064;47.912;12.308;2023-11-19T12:55:28;12.30;99.90
32660;DHT22;19064;47.912;12.308;2023-11-19T12:58:00;12.30;99.90
32660;DHT22;19064;47.912;12.308;2023-11-19T13:00:28;12.30;99.90
32660;DHT22;19064;47.912;12.308;2023-11-19T13:02:58;12.40;99.90
32660;DHT22;19064;47.912;12.308;2023-11-19T13:05:29;12.50;99.90
32660;DHT22;19064;47.912;12.308;2023-11-19T13:08:04;12.60;99.90
32660;DHT22;19064;47.912;12.308;2023-11-19T13:10:33;12.60;99.90
32660;DHT22;19064;47.912;12.308;2023-11-19T13:13:06;12.80;99.90
32660;DHT22;19064;47.912;12.308;2023-11-19T13:15:35;12.90;99.90
32660;DHT22;19064;47.912;12.308;2023-11-19T13:18:03;13.00;99.90
32660;DHT22;19064;47.912;12.308;2023-11-19T13:20:31;13.10;99.90
32660;DHT22;19064;47.912;12.308;2023-11-19T13:23:00;13.10;99.90
32660;DHT22;19064;47.912;12.308;2023-11-19T13:25:31;13.10;99.90
32660;DHT22;19064;47.912;12.308;2023-11-19T13:27:59;13.10;99.90
32660;DHT22;19064;47.912;12.308;2023-11-19T13:30:29;13.00;99.90
32660;DHT22;19064;47.912;12.308;2023-11-19T13:32:57;13.00;99.90
32660;DHT22;19064;47.912;12.308;2023-11-19T13:35:25;13.00;99.90
32660;DHT22;19064;47.912;12.308;2023-11-19T13:37:54;12.90;99.90
32660;DHT22;19064;47.912;12.308;2023-11-19T13:40:23;12.80;99.90
32660;DHT22;19064;47.912;12.308;2023-11-19T13:42:52;12.80;99.90
32660;DHT22;19064;47.912;12.308;2023-11-19T13:45:21;12.70;99.90
32660;DHT22;19064;47.912;12.308;2023-11-19T13:47:54;12.70;99.90
32660;DHT22;19064;47.912;12.308;2023-11-19T13:50:24;12.70;99.90
32660;DHT22;19064;47.912;12.308;2023-11-19T13:52:55;12.70;99.90
32660;DHT22;19064;47.912;12.308;2023-11-19T13:55:26;12.70;99.90
32660;DHT22;19064;47.912;12.308;2023-11-19T13:57:54;12.70;99.90
32660;DHT22;19064;47.912;12.308;2023-11-19T14:00:22;12.70;99.90
32660;DHT22;19064;47.912;12.308;2023-11-19T14:02:52;12.60;99.90
32660;DHT22;19064;47.912;12.308;2023-11-19T14:05:20;12.60;99.90
32660;DHT22;19064;47.912;12.308;2023-11-19T14:07:50;12.60;99.90
32660;DHT22;19064;47.912;12.308;2023-11-19T14:10:18;12.60;99.90
32660;DHT22;19064;47.912;12.308;2023-11-19T14:12:46;12.60;99.90
32660;DHT22;19064;47.912;12.308;2023-11-19T14:15:14;12.60;99.90
32660;DHT22;19064;47.912;12.308;2023-11-19T14:17:44;12.50;99.90
32660;DHT22;19064;47.912;12.308;2023-11-19T14:20:13;12.50;99.90
32660;DHT22;19064;47.912;12.308;2023-11-19T14:22:43;12.50;99.90
32660;DHT22;19064;47.912;12.308;2023-11-19T14:25:11;12.40;99.90
32660;DHT22;19064;47.912;12.308;2023-11-19T14:27:40;12.40;99.90
32660;DHT22;19064;47.912;12.308;2023-11-19T14:30:10;12.30;99.90
32660;DHT22;19064;47.912;12.308;2023-11-19T14:32:39;12.20;99.90
32660;DHT22;19064;47.912;12.308;2023-11-19T14:35:08;12.20;99.90
32660;DHT22;19064;47.912;12.308;2023-11-19T14:37:37;12.20;99.90
32660;DHT22;19064;47.912;12.308;2023-11-19T14:40:05;12.20;99.90
32660;DHT22;19064;47.912;12.308;2023-11-19T14:42:35;12.20;99.90
32660;DHT22;19064;47.912;12.308;2023-11-19T14:45:04;12.10;99.90
32660;DHT22;19064;47.912;12.308;2023-11-19T14:47:32;12.10;99.90
32660;DHT22;19064;47.912;12.308;2023-11-19T14:50:00;12.00;99.90
32660;DHT22;19064;47.912;12.308;2023-11-19T14:52:30;11.90;99.90
32660;DHT22;19064;47.912;12.308;2023-11-19T14:54:58;11.90;99.90
32660;DHT22;19064;47.912;12.308;2023-11-19T14:57:24;11.90;99.90
32660;DHT22;19064;47.912;12.308;2023-11-19T14:59:51;11.80;99.90
32660;DHT22;19064;47.912;12.308;2023-11-19T15:02:19;11.70;99.90
32660;DHT22;19064;47.912;12.308;2023-11-19T15:04:47;11.70;99.90
32660;DHT22;19064;47.912;12.308;2023-11-19T15:07:15;11.60;99.90
32660;DHT22;19064;47.912;12.308;2023-11-19T15:09:42;11.60;99.90
32660;DHT22;19064;47.912;12.308;2023-11-19T15:12:11;11.70;99.90
32660;DHT22;19064;47.912;12.308;2023-11-19T15:14:37;11.60;99.90
32660;DHT22;19064;47.912;12.308;2023-11-19T15:17:05;11.70;99.90
32660;DHT22;19064;47.912;12.308;2023-11-19T15:19:34;11.70;99.90
32660;DHT22;19064;47.912;12.308;2023-11-19T15:22:01;11.60;99.90
32660;DHT22;19064;47.912;12.308;2023-11-19T15:24:30;11.60;99.90
32660;DHT22;19064;47.912;12.308;2023-11-19T15:26:59;11.50;99.90
32660;DHT22;19064;47.912;12.308;2023-11-19T15:29:27;11.50;99.90
32660;DHT22;19064;47.912;12.308;2023-11-19T15:31:54;11.40;99.90
32660;DHT22;19064;47.912;12.308;2023-11-19T15:34:20;11.30;99.90
32660;DHT22;19064;47.912;12.308;2023-11-19T15:36:47;11.20;99.90
32660;DHT22;19064;47.912;12.308;2023-11-19T15:39:15;11.00;99.90
32660;DHT22;19064;47.912;12.308;2023-11-19T15:41:42;10.90;99.90
32660;DHT22;19064;47.912;12.308;2023-11-19T15:44:10;10.90;99.90